Screeton, Arkansas
Current Conditions -  °F | °C
As of 9:15 AM on Friday 19 Dec 2014 (Local Time) from KSGT Reporting Station
Overcast Overcast  
Wind Chill: 36°   Ceiling: 1900
Heat Index: 43°   Visibility: NA
Dew Point: 37°   Wind: 13mph
Humidity: 81%   Direction: 40°NE
Pressure: 30.27"   Gusts: NA
Location:  34.7916°N, 91.5681°W
Report Text: KSGT 191515Z 04011KT OVC019 06/03 A3027 RMK AO1
Loading
Personal Weather Stations






























Interactive Weather Map New forecast layout! Learn more

10-Day Weather Forecast

Advertisements
Track Severe Weather on mobile